Terminal Aerodrome Forecast
Issued by NWS

Home | Current Version | Previous Version | Text Only | Print | Product List | Glossary On
Versions: 1 2 3 4 5 6 7 8 9 10 11 12 13 14 15 16 17 18 19 20 21 22
155
FTUS43 KILX 011130
TAFCMI
TAF
KCMI 011130Z 0112/0212 35004KT 6SM -DZ BR OVC005
     FM011300 35004KT 5SM -DZ BR OVC003
     FM011600 33007KT 6SM -RADZ BR BKN015 OVC035
     FM012000 28006KT P6SM OVC025
     FM020100 28005KT P6SM BKN025 OVC050
     FM020800 30004KT 4SM BR BKN006=

USA.gov is the U.S. government's official web portal to all federal, state and local government web resources and services.